sensor_id;sensor_type;location;lat;lon;timestamp;P1;durP1;ratioP1;P2;durP2;ratioP2
32096;SDS011;18610;49.916;8.284;2023-04-01T00:01:13;11.77;;;2.45;;
32096;SDS011;18610;49.916;8.284;2023-04-01T00:03:42;13.55;;;2.58;;
32096;SDS011;18610;49.916;8.284;2023-04-01T00:06:10;9.13;;;1.65;;
32096;SDS011;18610;49.916;8.284;2023-04-01T00:08:38;10.13;;;2.05;;
32096;SDS011;18610;49.916;8.284;2023-04-01T00:11:05;9.63;;;1.73;;
32096;SDS011;18610;49.916;8.284;2023-04-01T00:13:32;7.35;;;1.45;;
32096;SDS011;18610;49.916;8.284;2023-04-01T00:15:59;9.55;;;2.05;;
32096;SDS011;18610;49.916;8.284;2023-04-01T00:18:26;8.85;;;1.75;;
32096;SDS011;18610;49.916;8.284;2023-04-01T00:20:54;8.38;;;1.98;;
32096;SDS011;18610;49.916;8.284;2023-04-01T00:23:21;6.88;;;1.20;;
32096;SDS011;18610;49.916;8.284;2023-04-01T00:25:48;10.60;;;2.08;;
32096;SDS011;18610;49.916;8.284;2023-04-01T00:28:15;5.13;;;1.73;;
32096;SDS011;18610;49.916;8.284;2023-04-01T00:30:43;11.52;;;2.13;;
32096;SDS011;18610;49.916;8.284;2023-04-01T00:33:10;9.13;;;2.45;;
32096;SDS011;18610;49.916;8.284;2023-04-01T00:35:37;10.77;;;1.73;;
32096;SDS011;18610;49.916;8.284;2023-04-01T00:38:05;7.90;;;1.95;;
32096;SDS011;18610;49.916;8.284;2023-04-01T00:40:34;8.57;;;2.03;;
32096;SDS011;18610;49.916;8.284;2023-04-01T00:43:03;11.50;;;1.83;;
32096;SDS011;18610;49.916;8.284;2023-04-01T00:45:35;9.57;;;1.80;;
32096;SDS011;18610;49.916;8.284;2023-04-01T00:48:05;12.45;;;2.38;;
32096;SDS011;18610;49.916;8.284;2023-04-01T00:50:34;9.77;;;2.50;;
32096;SDS011;18610;49.916;8.284;2023-04-01T00:53:03;4.43;;;1.20;;
32096;SDS011;18610;49.916;8.284;2023-04-01T00:55:32;6.93;;;1.80;;
32096;SDS011;18610;49.916;8.284;2023-04-01T00:58:03;9.43;;;2.00;;
32096;SDS011;18610;49.916;8.284;2023-04-01T01:00:33;7.55;;;1.75;;
32096;SDS011;18610;49.916;8.284;2023-04-01T01:03:01;12.70;;;1.70;;
32096;SDS011;18610;49.916;8.284;2023-04-01T01:05:30;9.07;;;1.55;;
32096;SDS011;18610;49.916;8.284;2023-04-01T01:08:15;7.47;;;1.70;;
32096;SDS011;18610;49.916;8.284;2023-04-01T01:10:49;14.57;;;2.22;;
32096;SDS011;18610;49.916;8.284;2023-04-01T01:13:16;6.22;;;1.20;;
32096;SDS011;18610;49.916;8.284;2023-04-01T01:15:49;8.63;;;1.75;;
32096;SDS011;18610;49.916;8.284;2023-04-01T01:18:23;12.32;;;1.67;;
32096;SDS011;18610;49.916;8.284;2023-04-01T01:21:19;7.15;;;1.85;;
32096;SDS011;18610;49.916;8.284;2023-04-01T01:24:09;5.63;;;1.48;;
32096;SDS011;18610;49.916;8.284;2023-04-01T01:26:53;8.57;;;1.65;;
32096;SDS011;18610;49.916;8.284;2023-04-01T01:32:41;11.10;;;2.35;;
32096;SDS011;18610;49.916;8.284;2023-04-01T01:35:23;8.48;;;1.65;;
32096;SDS011;18610;49.916;8.284;2023-04-01T01:37:55;6.07;;;1.50;;
32096;SDS011;18610;49.916;8.284;2023-04-01T01:40:25;6.13;;;1.63;;
32096;SDS011;18610;49.916;8.284;2023-04-01T01:42:55;8.52;;;1.35;;
32096;SDS011;18610;49.916;8.284;2023-04-01T01:45:26;10.70;;;1.42;;
32096;SDS011;18610;49.916;8.284;2023-04-01T01:47:55;9.52;;;2.17;;
32096;SDS011;18610;49.916;8.284;2023-04-01T01:50:24;12.98;;;2.10;;
32096;SDS011;18610;49.916;8.284;2023-04-01T01:52:59;10.32;;;1.80;;
32096;SDS011;18610;49.916;8.284;2023-04-01T01:55:28;6.35;;;1.58;;
32096;SDS011;18610;49.916;8.284;2023-04-01T01:57:56;7.28;;;1.83;;
32096;SDS011;18610;49.916;8.284;2023-04-01T02:00:25;8.52;;;1.42;;
32096;SDS011;18610;49.916;8.284;2023-04-01T02:02:52;4.65;;;1.40;;
32096;SDS011;18610;49.916;8.284;2023-04-01T02:05:21;11.07;;;1.80;;
32096;SDS011;18610;49.916;8.284;2023-04-01T02:07:52;8.73;;;1.25;;
32096;SDS011;18610;49.916;8.284;2023-04-01T02:10:25;8.73;;;1.85;;
32096;SDS011;18610;49.916;8.284;2023-04-01T02:12:56;6.97;;;1.58;;
32096;SDS011;18610;49.916;8.284;2023-04-01T02:15:27;10.52;;;1.83;;
32096;SDS011;18610;49.916;8.284;2023-04-01T02:17:58;6.40;;;1.30;;
32096;SDS011;18610;49.916;8.284;2023-04-01T02:20:26;10.52;;;1.90;;
32096;SDS011;18610;49.916;8.284;2023-04-01T02:22:56;5.93;;;1.88;;
32096;SDS011;18610;49.916;8.284;2023-04-01T02:25:25;6.75;;;1.60;;
32096;SDS011;18610;49.916;8.284;2023-04-01T02:27:54;6.60;;;1.48;;
32096;SDS011;18610;49.916;8.284;2023-04-01T02:30:24;4.65;;;1.40;;
32096;SDS011;18610;49.916;8.284;2023-04-01T02:32:52;7.65;;;1.30;;
32096;SDS011;18610;49.916;8.284;2023-04-01T02:35:20;6.95;;;1.33;;
32096;SDS011;18610;49.916;8.284;2023-04-01T02:37:49;8.30;;;1.40;;
32096;SDS011;18610;49.916;8.284;2023-04-01T02:40:18;8.50;;;1.15;;
32096;SDS011;18610;49.916;8.284;2023-04-01T02:42:44;9.50;;;1.50;;
32096;SDS011;18610;49.916;8.284;2023-04-01T02:45:12;9.35;;;1.40;;
32096;SDS011;18610;49.916;8.284;2023-04-01T02:47:40;4.95;;;1.08;;
32096;SDS011;18610;49.916;8.284;2023-04-01T02:50:07;12.80;;;2.33;;
32096;SDS011;18610;49.916;8.284;2023-04-01T02:52:34;9.23;;;1.38;;
32096;SDS011;18610;49.916;8.284;2023-04-01T02:55:03;5.82;;;1.30;;
32096;SDS011;18610;49.916;8.284;2023-04-01T02:57:32;8.32;;;1.63;;
32096;SDS011;18610;49.916;8.284;2023-04-01T02:59:59;8.38;;;1.70;;
32096;SDS011;18610;49.916;8.284;2023-04-01T03:02:25;16.65;;;1.85;;
32096;SDS011;18610;49.916;8.284;2023-04-01T03:04:52;10.38;;;1.65;;
32096;SDS011;18610;49.916;8.284;2023-04-01T03:07:19;5.95;;;1.65;;
32096;SDS011;18610;49.916;8.284;2023-04-01T03:09:46;10.60;;;2.42;;
32096;SDS011;18610;49.916;8.284;2023-04-01T03:12:14;8.45;;;1.65;;
32096;SDS011;18610;49.916;8.284;2023-04-01T03:14:40;12.63;;;2.22;;
32096;SDS011;18610;49.916;8.284;2023-04-01T03:17:07;8.68;;;1.73;;
32096;SDS011;18610;49.916;8.284;2023-04-01T03:19:34;6.85;;;1.42;;
32096;SDS011;18610;49.916;8.284;2023-04-01T03:22:00;7.78;;;1.45;;
32096;SDS011;18610;49.916;8.284;2023-04-01T03:24:27;7.15;;;1.70;;
32096;SDS011;18610;49.916;8.284;2023-04-01T03:26:54;7.63;;;1.73;;
32096;SDS011;18610;49.916;8.284;2023-04-01T03:29:22;11.20;;;1.45;;
32096;SDS011;18610;49.916;8.284;2023-04-01T03:31:49;7.85;;;1.15;;
32096;SDS011;18610;49.916;8.284;2023-04-01T03:34:15;6.13;;;1.45;;
32096;SDS011;18610;49.916;8.284;2023-04-01T03:36:42;6.22;;;1.55;;
32096;SDS011;18610;49.916;8.284;2023-04-01T03:39:09;10.77;;;1.95;;
32096;SDS011;18610;49.916;8.284;2023-04-01T03:41:35;14.07;;;2.85;;
32096;SDS011;18610;49.916;8.284;2023-04-01T03:44:03;9.32;;;1.85;;
32096;SDS011;18610;49.916;8.284;2023-04-01T03:46:31;12.85;;;1.70;;
32096;SDS011;18610;49.916;8.284;2023-04-01T03:48:58;9.90;;;2.15;;
32096;SDS011;18610;49.916;8.284;2023-04-01T03:51:24;11.93;;;1.60;;
32096;SDS011;18610;49.916;8.284;2023-04-01T03:53:51;8.07;;;1.90;;
32096;SDS011;18610;49.916;8.284;2023-04-01T03:56:18;13.07;;;1.75;;
32096;SDS011;18610;49.916;8.284;2023-04-01T03:58:44;12.32;;;2.17;;
32096;SDS011;18610;49.916;8.284;2023-04-01T04:01:15;6.20;;;1.50;;
32096;SDS011;18610;49.916;8.284;2023-04-01T04:06:12;12.77;;;1.65;;
32096;SDS011;18610;49.916;8.284;2023-04-01T04:08:39;8.85;;;1.77;;
32096;SDS011;18610;49.916;8.284;2023-04-01T04:11:06;11.93;;;1.70;;
32096;SDS011;18610;49.916;8.284;2023-04-01T04:13:33;6.72;;;1.45;;
32096;SDS011;18610;49.916;8.284;2023-04-01T04:16:00;9.00;;;1.60;;
32096;SDS011;18610;49.916;8.284;2023-04-01T04:18:27;6.22;;;1.30;;
32096;SDS011;18610;49.916;8.284;2023-04-01T04:20:55;4.90;;;1.20;;
32096;SDS011;18610;49.916;8.284;2023-04-01T04:23:22;9.70;;;2.42;;
32096;SDS011;18610;49.916;8.284;2023-04-01T04:25:56;11.32;;;1.95;;
32096;SDS011;18610;49.916;8.284;2023-04-01T04:28:24;7.18;;;1.40;;
32096;SDS011;18610;49.916;8.284;2023-04-01T04:30:52;13.75;;;1.70;;
32096;SDS011;18610;49.916;8.284;2023-04-01T04:33:21;12.57;;;2.35;;
32096;SDS011;18610;49.916;8.284;2023-04-01T04:35:48;6.80;;;2.22;;
32096;SDS011;18610;49.916;8.284;2023-04-01T04:38:16;13.80;;;1.45;;
32096;SDS011;18610;49.916;8.284;2023-04-01T04:40:43;8.98;;;1.80;;
32096;SDS011;18610;49.916;8.284;2023-04-01T04:43:11;8.68;;;1.92;;
32096;SDS011;18610;49.916;8.284;2023-04-01T04:45:39;10.10;;;1.88;;
32096;SDS011;18610;49.916;8.284;2023-04-01T04:48:06;12.82;;;1.50;;
32096;SDS011;18610;49.916;8.284;2023-04-01T04:50:34;7.28;;;1.00;;
32096;SDS011;18610;49.916;8.284;2023-04-01T04:53:00;7.25;;;1.35;;
32096;SDS011;18610;49.916;8.284;2023-04-01T04:55:28;9.93;;;1.50;;
32096;SDS011;18610;49.916;8.284;2023-04-01T04:57:55;6.10;;;1.63;;
32096;SDS011;18610;49.916;8.284;2023-04-01T05:00:22;6.60;;;1.27;;
32096;SDS011;18610;49.916;8.284;2023-04-01T05:02:49;14.63;;;1.80;;
32096;SDS011;18610;49.916;8.284;2023-04-01T05:05:15;8.05;;;1.80;;
32096;SDS011;18610;49.916;8.284;2023-04-01T05:07:42;5.90;;;1.45;;
32096;SDS011;18610;49.916;8.284;2023-04-01T05:10:09;6.95;;;1.48;;
32096;SDS011;18610;49.916;8.284;2023-04-01T05:12:37;10.73;;;1.88;;
32096;SDS011;18610;49.916;8.284;2023-04-01T05:15:06;7.15;;;1.45;;
32096;SDS011;18610;49.916;8.284;2023-04-01T05:17:33;10.48;;;1.88;;
32096;SDS011;18610;49.916;8.284;2023-04-01T05:20:00;5.90;;;1.48;;
32096;SDS011;18610;49.916;8.284;2023-04-01T05:22:28;7.53;;;1.50;;
32096;SDS011;18610;49.916;8.284;2023-04-01T05:24:55;4.88;;;1.45;;
32096;SDS011;18610;49.916;8.284;2023-04-01T05:27:21;5.43;;;1.60;;
32096;SDS011;18610;49.916;8.284;2023-04-01T05:29:49;9.07;;;1.60;;
32096;SDS011;18610;49.916;8.284;2023-04-01T05:32:16;5.05;;;1.35;;
32096;SDS011;18610;49.916;8.284;2023-04-01T05:34:43;4.60;;;1.15;;
32096;SDS011;18610;49.916;8.284;2023-04-01T05:37:09;4.00;;;1.15;;
32096;SDS011;18610;49.916;8.284;2023-04-01T05:39:36;7.50;;;1.42;;
32096;SDS011;18610;49.916;8.284;2023-04-01T05:42:05;7.45;;;1.20;;
32096;SDS011;18610;49.916;8.284;2023-04-01T05:44:32;2.72;;;0.88;;
32096;SDS011;18610;49.916;8.284;2023-04-01T05:47:00;5.18;;;1.00;;
32096;SDS011;18610;49.916;8.284;2023-04-01T05:49:27;3.38;;;0.88;;
32096;SDS011;18610;49.916;8.284;2023-04-01T05:51:54;2.22;;;0.73;;
32096;SDS011;18610;49.916;8.284;2023-04-01T05:54:21;3.47;;;0.82;;
32096;SDS011;18610;49.916;8.284;2023-04-01T05:56:47;5.07;;;1.23;;
32096;SDS011;18610;49.916;8.284;2023-04-01T05:59:14;6.80;;;1.00;;
32096;SDS011;18610;49.916;8.284;2023-04-01T06:01:41;5.45;;;1.08;;
32096;SDS011;18610;49.916;8.284;2023-04-01T06:04:11;2.22;;;0.70;;
32096;SDS011;18610;49.916;8.284;2023-04-01T06:06:40;2.30;;;0.88;;
32096;SDS011;18610;49.916;8.284;2023-04-01T06:09:10;4.68;;;1.10;;
32096;SDS011;18610;49.916;8.284;2023-04-01T06:11:43;6.18;;;1.00;;
32096;SDS011;18610;49.916;8.284;2023-04-01T06:14:24;5.32;;;0.80;;
32096;SDS011;18610;49.916;8.284;2023-04-01T06:17:00;4.43;;;0.90;;
32096;SDS011;18610;49.916;8.284;2023-04-01T06:19:41;2.58;;;1.02;;
32096;SDS011;18610;49.916;8.284;2023-04-01T06:22:32;1.95;;;0.88;;
32096;SDS011;18610;49.916;8.284;2023-04-01T06:25:22;3.20;;;0.95;;
32096;SDS011;18610;49.916;8.284;2023-04-01T06:28:26;4.72;;;0.93;;
32096;SDS011;18610;49.916;8.284;2023-04-01T06:31:14;4.07;;;0.77;;
32096;SDS011;18610;49.916;8.284;2023-04-01T06:34:02;6.82;;;1.33;;
32096;SDS011;18610;49.916;8.284;2023-04-01T06:36:49;2.35;;;1.00;;
32096;SDS011;18610;49.916;8.284;2023-04-01T06:39:37;4.63;;;0.98;;
32096;SDS011;18610;49.916;8.284;2023-04-01T06:42:24;3.22;;;0.82;;
32096;SDS011;18610;49.916;8.284;2023-04-01T06:45:03;8.25;;;1.48;;
32096;SDS011;18610;49.916;8.284;2023-04-01T06:47:44;4.50;;;0.98;;
32096;SDS011;18610;49.916;8.284;2023-04-01T06:50:26;8.82;;;1.05;;
32096;SDS011;18610;49.916;8.284;2023-04-01T06:53:03;3.85;;;0.95;;
32096;SDS011;18610;49.916;8.284;2023-04-01T06:55:35;2.72;;;1.10;;
32096;SDS011;18610;49.916;8.284;2023-04-01T06:58:10;6.13;;;0.80;;
32096;SDS011;18610;49.916;8.284;2023-04-01T07:00:43;4.32;;;0.70;;
32096;SDS011;18610;49.916;8.284;2023-04-01T07:03:14;8.63;;;0.70;;
32096;SDS011;18610;49.916;8.284;2023-04-01T07:05:46;4.03;;;0.95;;
32096;SDS011;18610;49.916;8.284;2023-04-01T07:08:15;4.03;;;0.70;;
32096;SDS011;18610;49.916;8.284;2023-04-01T07:10:47;6.30;;;0.57;;
32096;SDS011;18610;49.916;8.284;2023-04-01T07:13:18;3.95;;;0.40;;
32096;SDS011;18610;49.916;8.284;2023-04-01T07:15:50;2.83;;;0.60;;
32096;SDS011;18610;49.916;8.284;2023-04-01T07:18:25;6.10;;;0.70;;
32096;SDS011;18610;49.916;8.284;2023-04-01T07:20:57;3.75;;;0.70;;
32096;SDS011;18610;49.916;8.284;2023-04-01T07:23:28;7.13;;;0.60;;
32096;SDS011;18610;49.916;8.284;2023-04-01T07:25:59;2.53;;;0.77;;
32096;SDS011;18610;49.916;8.284;2023-04-01T07:28:32;1.88;;;0.60;;
32096;SDS011;18610;49.916;8.284;2023-04-01T07:31:02;3.75;;;0.80;;
32096;SDS011;18610;49.916;8.284;2023-04-01T07:33:39;1.50;;;0.60;;
32096;SDS011;18610;49.916;8.284;2023-04-01T07:36:10;2.30;;;0.50;;
32096;SDS011;18610;49.916;8.284;2023-04-01T07:38:47;1.45;;;0.50;;
32096;SDS011;18610;49.916;8.284;2023-04-01T07:41:23;1.90;;;0.63;;
32096;SDS011;18610;49.916;8.284;2023-04-01T07:44:01;0.73;;;0.65;;
32096;SDS011;18610;49.916;8.284;2023-04-01T07:46:40;1.30;;;0.65;;
32096;SDS011;18610;49.916;8.284;2023-04-01T07:49:21;1.98;;;0.90;;
32096;SDS011;18610;49.916;8.284;2023-04-01T07:51:56;2.95;;;0.75;;
32096;SDS011;18610;49.916;8.284;2023-04-01T07:54:29;1.15;;;0.70;;
32096;SDS011;18610;49.916;8.284;2023-04-01T07:57:05;5.32;;;0.80;;
32096;SDS011;18610;49.916;8.284;2023-04-01T07:59:39;2.75;;;0.73;;
32096;SDS011;18610;49.916;8.284;2023-04-01T08:02:21;0.90;;;0.30;;
32096;SDS011;18610;49.916;8.284;2023-04-01T08:07:30;5.10;;;0.40;;
32096;SDS011;18610;49.916;8.284;2023-04-01T08:10:09;2.38;;;0.60;;
32096;SDS011;18610;49.916;8.284;2023-04-01T08:12:41;1.50;;;0.43;;
32096;SDS011;18610;49.916;8.284;2023-04-01T08:15:19;1.48;;;0.40;;
32096;SDS011;18610;49.916;8.284;2023-04-01T08:17:55;1.55;;;0.40;;
32096;SDS011;18610;49.916;8.284;2023-04-01T08:20:32;1.17;;;0.95;;
32096;SDS011;18610;49.916;8.284;2023-04-01T08:25:34;5.88;;;0.98;;
32096;SDS011;18610;49.916;8.284;2023-04-01T08:28:09;1.00;;;0.60;;
32096;SDS011;18610;49.916;8.284;2023-04-01T08:30:41;0.65;;;0.30;;
32096;SDS011;18610;49.916;8.284;2023-04-01T08:33:13;1.33;;;0.50;;
32096;SDS011;18610;49.916;8.284;2023-04-01T08:35:46;3.28;;;0.50;;
32096;SDS011;18610;49.916;8.284;2023-04-01T08:38:17;2.80;;;0.52;;
32096;SDS011;18610;49.916;8.284;2023-04-01T08:40:55;0.88;;;0.55;;
32096;SDS011;18610;49.916;8.284;2023-04-01T08:43:35;0.57;;;0.57;;
32096;SDS011;18610;49.916;8.284;2023-04-01T08:46:28;0.50;;;0.50;;
32096;SDS011;18610;49.916;8.284;2023-04-01T08:49:11;1.85;;;0.57;;
32096;SDS011;18610;49.916;8.284;2023-04-01T08:51:57;0.45;;;0.40;;
32096;SDS011;18610;49.916;8.284;2023-04-01T08:54:51;2.33;;;0.68;;
32096;SDS011;18610;49.916;8.284;2023-04-01T08:57:42;0.80;;;0.50;;
32096;SDS011;18610;49.916;8.284;2023-04-01T09:00:20;0.35;;;0.30;;
32096;SDS011;18610;49.916;8.284;2023-04-01T09:03:08;2.33;;;0.40;;
32096;SDS011;18610;49.916;8.284;2023-04-01T09:06:00;1.73;;;0.55;;
32096;SDS011;18610;49.916;8.284;2023-04-01T09:08:52;0.40;;;0.40;;
32096;SDS011;18610;49.916;8.284;2023-04-01T09:11:39;2.55;;;1.52;;
32096;SDS011;18610;49.916;8.284;2023-04-01T09:14:33;1.55;;;0.50;;
32096;SDS011;18610;49.916;8.284;2023-04-01T09:17:28;0.70;;;0.30;;
32096;SDS011;18610;49.916;8.284;2023-04-01T09:20:20;0.65;;;0.38;;
32096;SDS011;18610;49.916;8.284;2023-04-01T09:23:05;4.15;;;0.70;;
32096;SDS011;18610;49.916;8.284;2023-04-01T09:25:48;1.27;;;0.50;;
32096;SDS011;18610;49.916;8.284;2023-04-01T09:28:25;0.77;;;0.30;;
32096;SDS011;18610;49.916;8.284;2023-04-01T09:31:04;0.40;;;0.30;;
32096;SDS011;18610;49.916;8.284;2023-04-01T09:33:49;2.35;;;0.47;;
32096;SDS011;18610;49.916;8.284;2023-04-01T09:36:43;3.17;;;0.60;;
32096;SDS011;18610;49.916;8.284;2023-04-01T09:42:15;0.93;;;0.40;;
32096;SDS011;18610;49.916;8.284;2023-04-01T09:45:01;0.77;;;0.30;;
32096;SDS011;18610;49.916;8.284;2023-04-01T09:47:40;0.22;;;0.22;;
32096;SDS011;18610;49.916;8.284;2023-04-01T09:50:21;0.80;;;0.50;;
32096;SDS011;18610;49.916;8.284;2023-04-01T09:53:01;1.45;;;0.30;;
32096;SDS011;18610;49.916;8.284;2023-04-01T10:08:33;0.52;;;0.35;;
32096;SDS011;18610;49.916;8.284;2023-04-01T10:14:34;2.20;;;0.60;;
32096;SDS011;18610;49.916;8.284;2023-04-01T10:17:44;0.28;;;0.28;;
32096;SDS011;18610;49.916;8.284;2023-04-01T10:23:30;0.30;;;0.30;;
32096;SDS011;18610;49.916;8.284;2023-04-01T10:26:33;0.30;;;0.30;;
32096;SDS011;18610;49.916;8.284;2023-04-01T10:48:01;0.20;;;0.20;;
32096;SDS011;18610;49.916;8.284;2023-04-01T10:50:44;3.40;;;0.40;;
32096;SDS011;18610;49.916;8.284;2023-04-01T10:53:43;1.17;;;0.35;;
32096;SDS011;18610;49.916;8.284;2023-04-01T10:56:34;0.55;;;0.30;;
32096;SDS011;18610;49.916;8.284;2023-04-01T11:08:47;0.20;;;0.20;;
32096;SDS011;18610;49.916;8.284;2023-04-01T11:14:41;1.83;;;0.40;;
32096;SDS011;18610;49.916;8.284;2023-04-01T11:20:51;0.98;;;0.70;;
32096;SDS011;18610;49.916;8.284;2023-04-01T11:23:48;1.65;;;0.70;;
32096;SDS011;18610;49.916;8.284;2023-04-01T11:26:22;0.38;;;0.30;;
32096;SDS011;18610;49.916;8.284;2023-04-01T11:29:03;1.58;;;0.40;;
32096;SDS011;18610;49.916;8.284;2023-04-01T11:31:50;0.68;;;0.30;;
32096;SDS011;18610;49.916;8.284;2023-04-01T11:37:22;2.13;;;0.60;;
32096;SDS011;18610;49.916;8.284;2023-04-01T11:39:59;3.22;;;0.60;;
32096;SDS011;18610;49.916;8.284;2023-04-01T11:42:37;0.80;;;0.30;;
32096;SDS011;18610;49.916;8.284;2023-04-01T11:45:14;0.40;;;0.40;;
32096;SDS011;18610;49.916;8.284;2023-04-01T11:47:52;1.17;;;0.40;;
32096;SDS011;18610;49.916;8.284;2023-04-01T11:50:30;0.90;;;0.70;;
32096;SDS011;18610;49.916;8.284;2023-04-01T11:53:15;1.17;;;0.55;;
32096;SDS011;18610;49.916;8.284;2023-04-01T11:55:53;1.73;;;0.40;;
32096;SDS011;18610;49.916;8.284;2023-04-01T11:58:49;0.40;;;0.30;;
32096;SDS011;18610;49.916;8.284;2023-04-01T12:01:27;0.52;;;0.50;;
32096;SDS011;18610;49.916;8.284;2023-04-01T12:07:12;0.90;;;0.50;;
32096;SDS011;18610;49.916;8.284;2023-04-01T12:09:47;0.85;;;0.50;;
32096;SDS011;18610;49.916;8.284;2023-04-01T12:12:25;0.47;;;0.45;;
32096;SDS011;18610;49.916;8.284;2023-04-01T12:15:00;2.88;;;0.32;;
32096;SDS011;18610;49.916;8.284;2023-04-01T12:17:39;1.27;;;0.50;;
32096;SDS011;18610;49.916;8.284;2023-04-01T12:23:13;3.08;;;0.50;;
32096;SDS011;18610;49.916;8.284;2023-04-01T12:25:57;0.55;;;0.35;;
32096;SDS011;18610;49.916;8.284;2023-04-01T12:28:41;0.35;;;0.35;;
32096;SDS011;18610;49.916;8.284;2023-04-01T12:31:24;0.82;;;0.68;;
32096;SDS011;18610;49.916;8.284;2023-04-01T12:34:07;0.90;;;0.50;;
32096;SDS011;18610;49.916;8.284;2023-04-01T12:37:00;0.85;;;0.43;;
32096;SDS011;18610;49.916;8.284;2023-04-01T12:42:35;0.30;;;0.30;;
32096;SDS011;18610;49.916;8.284;2023-04-01T12:45:29;2.45;;;0.60;;
32096;SDS011;18610;49.916;8.284;2023-04-01T12:54:08;1.30;;;0.60;;
32096;SDS011;18610;49.916;8.284;2023-04-01T12:57:04;3.35;;;0.45;;
32096;SDS011;18610;49.916;8.284;2023-04-01T12:59:53;0.73;;;0.57;;
32096;SDS011;18610;49.916;8.284;2023-04-01T13:02:51;0.63;;;0.52;;
32096;SDS011;18610;49.916;8.284;2023-04-01T13:05:35;1.33;;;0.40;;
32096;SDS011;18610;49.916;8.284;2023-04-01T13:11:02;0.43;;;0.43;;
32096;SDS011;18610;49.916;8.284;2023-04-01T13:13:43;1.65;;;0.50;;
32096;SDS011;18610;49.916;8.284;2023-04-01T13:16:32;1.95;;;0.45;;
32096;SDS011;18610;49.916;8.284;2023-04-01T13:19:03;0.40;;;0.40;;
32096;SDS011;18610;49.916;8.284;2023-04-01T13:21:38;1.55;;;0.30;;
32096;SDS011;18610;49.916;8.284;2023-04-01T13:24:21;6.90;;;0.73;;
32096;SDS011;18610;49.916;8.284;2023-04-01T13:26:56;0.38;;;0.38;;
32096;SDS011;18610;49.916;8.284;2023-04-01T13:29:28;0.52;;;0.52;;
32096;SDS011;18610;49.916;8.284;2023-04-01T13:32:03;0.40;;;0.40;;
32096;SDS011;18610;49.916;8.284;2023-04-01T13:34:50;0.68;;;0.43;;
32096;SDS011;18610;49.916;8.284;2023-04-01T13:37:29;3.15;;;0.32;;
32096;SDS011;18610;49.916;8.284;2023-04-01T13:40:21;0.98;;;0.50;;
32096;SDS011;18610;49.916;8.284;2023-04-01T13:42:59;0.47;;;0.40;;
32096;SDS011;18610;49.916;8.284;2023-04-01T13:45:32;0.70;;;0.30;;
32096;SDS011;18610;49.916;8.284;2023-04-01T13:51:12;2.58;;;0.40;;
32096;SDS011;18610;49.916;8.284;2023-04-01T13:56:50;1.05;;;0.50;;
32096;SDS011;18610;49.916;8.284;2023-04-01T13:59:30;0.50;;;0.40;;
32096;SDS011;18610;49.916;8.284;2023-04-01T14:05:04;0.95;;;0.40;;
32096;SDS011;18610;49.916;8.284;2023-04-01T14:07:48;1.85;;;0.50;;
32096;SDS011;18610;49.916;8.284;2023-04-01T14:10:23;0.68;;;0.30;;
32096;SDS011;18610;49.916;8.284;2023-04-01T14:12:58;0.68;;;0.32;;
32096;SDS011;18610;49.916;8.284;2023-04-01T14:15:36;0.47;;;0.47;;
32096;SDS011;18610;49.916;8.284;2023-04-01T14:18:13;0.68;;;0.63;;
32096;SDS011;18610;49.916;8.284;2023-04-01T14:20:49;1.23;;;0.40;;
32096;SDS011;18610;49.916;8.284;2023-04-01T14:23:28;1.08;;;0.70;;
32096;SDS011;18610;49.916;8.284;2023-04-01T14:26:15;0.45;;;0.30;;
32096;SDS011;18610;49.916;8.284;2023-04-01T14:28:54;1.15;;;0.47;;
32096;SDS011;18610;49.916;8.284;2023-04-01T14:31:31;0.47;;;0.38;;
32096;SDS011;18610;49.916;8.284;2023-04-01T14:34:09;0.40;;;0.40;;
32096;SDS011;18610;49.916;8.284;2023-04-01T14:36:53;0.40;;;0.40;;
32096;SDS011;18610;49.916;8.284;2023-04-01T14:39:36;0.20;;;0.20;;
32096;SDS011;18610;49.916;8.284;2023-04-01T14:42:17;0.45;;;0.20;;
32096;SDS011;18610;49.916;8.284;2023-04-01T14:48:03;2.60;;;0.30;;
32096;SDS011;18610;49.916;8.284;2023-04-01T14:50:41;6.93;;;0.85;;
32096;SDS011;18610;49.916;8.284;2023-04-01T14:53:11;0.30;;;0.30;;
32096;SDS011;18610;49.916;8.284;2023-04-01T14:55:51;3.20;;;0.40;;
32096;SDS011;18610;49.916;8.284;2023-04-01T14:58:19;0.32;;;0.32;;
32096;SDS011;18610;49.916;8.284;2023-04-01T15:00:53;2.85;;;0.30;;
32096;SDS011;18610;49.916;8.284;2023-04-01T15:03:26;0.38;;;0.38;;
32096;SDS011;18610;49.916;8.284;2023-04-01T15:05:59;0.85;;;0.85;;
32096;SDS011;18610;49.916;8.284;2023-04-01T15:08:48;0.30;;;0.30;;
32096;SDS011;18610;49.916;8.284;2023-04-01T15:11:26;1.30;;;0.55;;
32096;SDS011;18610;49.916;8.284;2023-04-01T15:17:16;1.25;;;0.60;;
32096;SDS011;18610;49.916;8.284;2023-04-01T15:19:54;4.70;;;1.65;;
32096;SDS011;18610;49.916;8.284;2023-04-01T15:22:34;0.40;;;0.40;;
32096;SDS011;18610;49.916;8.284;2023-04-01T15:25:18;0.30;;;0.30;;
32096;SDS011;18610;49.916;8.284;2023-04-01T15:27:59;0.50;;;0.20;;
32096;SDS011;18610;49.916;8.284;2023-04-01T15:30:33;0.43;;;0.40;;
32096;SDS011;18610;49.916;8.284;2023-04-01T15:33:13;0.30;;;0.30;;
32096;SDS011;18610;49.916;8.284;2023-04-01T15:35:49;5.65;;;0.47;;
32096;SDS011;18610;49.916;8.284;2023-04-01T15:38:26;0.40;;;0.40;;
32096;SDS011;18610;49.916;8.284;2023-04-01T15:41:02;0.45;;;0.30;;
32096;SDS011;18610;49.916;8.284;2023-04-01T15:43:41;1.13;;;0.50;;
32096;SDS011;18610;49.916;8.284;2023-04-01T15:46:13;1.30;;;0.40;;
32096;SDS011;18610;49.916;8.284;2023-04-01T15:49:03;1.23;;;0.40;;
32096;SDS011;18610;49.916;8.284;2023-04-01T15:51:52;0.20;;;0.20;;
32096;SDS011;18610;49.916;8.284;2023-04-01T15:54:31;0.52;;;0.40;;
32096;SDS011;18610;49.916;8.284;2023-04-01T15:57:15;2.00;;;0.98;;
32096;SDS011;18610;49.916;8.284;2023-04-01T16:00:01;1.83;;;0.50;;
32096;SDS011;18610;49.916;8.284;2023-04-01T16:02:46;0.30;;;0.30;;
32096;SDS011;18610;49.916;8.284;2023-04-01T16:05:24;0.50;;;0.50;;
32096;SDS011;18610;49.916;8.284;2023-04-01T16:08:11;0.75;;;0.68;;
32096;SDS011;18610;49.916;8.284;2023-04-01T16:10:52;1.05;;;0.50;;
32096;SDS011;18610;49.916;8.284;2023-04-01T16:13:41;2.42;;;0.70;;
32096;SDS011;18610;49.916;8.284;2023-04-01T16:16:17;0.63;;;0.47;;
32096;SDS011;18610;49.916;8.284;2023-04-01T16:18:59;0.60;;;0.50;;
32096;SDS011;18610;49.916;8.284;2023-04-01T16:21:37;1.25;;;0.63;;
32096;SDS011;18610;49.916;8.284;2023-04-01T16:24:15;1.80;;;0.60;;
32096;SDS011;18610;49.916;8.284;2023-04-01T16:26:50;1.85;;;0.77;;
32096;SDS011;18610;49.916;8.284;2023-04-01T16:29:24;3.72;;;0.60;;
32096;SDS011;18610;49.916;8.284;2023-04-01T16:32:00;1.13;;;0.70;;
32096;SDS011;18610;49.916;8.284;2023-04-01T16:34:41;1.42;;;0.52;;
32096;SDS011;18610;49.916;8.284;2023-04-01T16:37:15;2.78;;;0.80;;
32096;SDS011;18610;49.916;8.284;2023-04-01T16:39:47;1.95;;;0.60;;
32096;SDS011;18610;49.916;8.284;2023-04-01T16:42:22;1.73;;;0.80;;
32096;SDS011;18610;49.916;8.284;2023-04-01T16:44:59;1.33;;;0.70;;
32096;SDS011;18610;49.916;8.284;2023-04-01T16:47:31;4.15;;;1.13;;
32096;SDS011;18610;49.916;8.284;2023-04-01T16:50:05;3.40;;;0.60;;
32096;SDS011;18610;49.916;8.284;2023-04-01T16:52:44;1.88;;;0.40;;
32096;SDS011;18610;49.916;8.284;2023-04-01T16:55:24;3.60;;;0.60;;
32096;SDS011;18610;49.916;8.284;2023-04-01T16:58:01;3.55;;;0.88;;
32096;SDS011;18610;49.916;8.284;2023-04-01T17:00:28;0.60;;;0.50;;
32096;SDS011;18610;49.916;8.284;2023-04-01T17:03:08;1.58;;;0.52;;
32096;SDS011;18610;49.916;8.284;2023-04-01T17:05:45;0.70;;;0.57;;
32096;SDS011;18610;49.916;8.284;2023-04-01T17:08:22;1.38;;;0.57;;
32096;SDS011;18610;49.916;8.284;2023-04-01T17:10:59;1.67;;;0.43;;
32096;SDS011;18610;49.916;8.284;2023-04-01T17:13:39;1.23;;;0.60;;
32096;SDS011;18610;49.916;8.284;2023-04-01T17:16:13;1.75;;;1.17;;
32096;SDS011;18610;49.916;8.284;2023-04-01T17:19:09;1.00;;;0.43;;